Last 24 Hours

OV-Siberia 8700'

Hourly Data | America/Los_Angeles
as of 9/5/26 8:31 PM PDT
Date & Time Temp (°F) RH (%) Dew Pt (°F) Wet Bulb (°F) Wind Dir (°) Wind Spd (mph) Wind Gust (mph) WindChill (°F) Daily Min Temp (°F) Daily Max Temp (°F)
9/5/26 - 2000 39.0 99 38.7 38.8 N | 0 0.4 2.0 39.2 36.7 46.4
9/5/26 - 1900 39.5 98 39.1 39.3 N | 0 0.3 1.8 40.5 36.7 46.4
9/5/26 - 1800 41.9 92 39.7 40.7 N | 0 0.2 1.7 42.5 36.7 46.4
9/5/26 - 1700 43.2 87 39.6 41.4 N | 0 0.2 1.6 43.6 36.7 46.4
9/5/26 - 1600 45.0 83 40.0 42.3 N | 0 0.2 1.6 44.3 36.7 46.4
9/5/26 - 1500 43.8 90 41.2 42.3 N | 0 0.3 1.8 44.3 36.7 46.4
9/5/26 - 1400 43.0 88 39.8 41.3 N | 0 0.2 1.9 43.4 36.7 45.0
9/5/26 - 1300 43.0 91 40.4 41.6 N | 0 0.3 1.8 43.0 36.7 43.9
9/5/26 - 1200 42.4 90 39.7 41.1 N | 0 0.3 2.0 41.4 36.7 42.4
9/5/26 - 1100 40.5 94 38.8 39.6 N | 0 0.4 2.0 40.4 36.7 41.7
9/5/26 - 1000 39.2 99 38.9 39.0 N | 0 0.3 2.0 38.7 36.7 39.3
9/5/26 - 0900 37.9 100 37.9 37.9 N | 0 0.3 2.1 37.8 36.7 38.1
9/5/26 - 0800 37.4 100 37.4 37.4 N | 0 0.3 2.0 37.2 36.7 37.6
9/5/26 - 0700 37.0 100 37.0 37.0 N | 0 0.3 2.1 36.9 36.7 37.3
9/5/26 - 0600 37.0 100 37.0 37.0 N | 0 0.4 2.1 37.0 36.7 37.3
9/5/26 - 0500 37.0 100 37.0 37.0 N | 0 0.5 2.5 37.0 36.7 37.3
9/5/26 - 0400 37.0 100 37.0 37.0 N | 0 0.4 2.4 36.9 36.7 37.3
9/5/26 - 0300 37.0 100 37.0 37.0 N | 0 0.5 2.4 36.9 36.7 37.3
9/5/26 - 0200 37.1 100 37.1 37.1 N | 0 0.4 2.2 37.2 36.7 37.3
9/5/26 - 0100 37.1 100 37.1 37.1 N | 0 0.3 2.4 36.9 36.7 37.1
9/5/26 - 0000 36.7 100 36.7 36.7 N | 0 0.4 2.3 36.7 36.2 40.6
9/4/26 - 2300 36.5 100 36.5 36.5 N | 0 0.3 2.2 36.5 36.2 40.6
9/4/26 - 2200 36.4 100 36.4 36.4 N | 0 0.4 2.3 36.5 36.3 40.6
9/4/26 - 2100 37.0 100 37.0 37.0 N | 0 0.3 2.2 37.4 36.9 40.6
9/4/26 - 2000 37.4 100 37.4 37.4 N | 0 0.4 2.2 37.8 37.4 40.6
Max 45.0 100 41.2 42.3 - 0.5 2.5 44.3 37.4 46.4
Avg 39.2 96 38.2 38.6 - 0.3 2.1 39.2 - -
Min 36.4 83 36.4 36.4 - 0.2 1.6 36.5 36.2 37.1